createdAt,value
2019-05-22T00:02:36.054Z,99.90
2019-05-22T00:07:44.323Z,99.90
2019-05-22T00:12:51.591Z,99.90
2019-05-22T00:17:58.080Z,99.90
2019-05-22T00:23:11.443Z,99.90
2019-05-22T00:28:17.469Z,99.90
2019-05-22T00:33:22.908Z,99.90
2019-05-22T00:38:29.363Z,99.90
2019-05-22T00:43:39.699Z,99.90
2019-05-22T00:48:47.475Z,99.90
2019-05-22T00:54:10.288Z,99.90
2019-05-22T00:59:23.184Z,99.90
2019-05-22T01:04:35.398Z,99.90
2019-05-22T01:09:43.969Z,99.90
2019-05-22T01:14:50.063Z,99.90
2019-05-22T01:19:55.922Z,99.90
2019-05-22T01:25:03.174Z,99.90
2019-05-22T01:30:14.800Z,99.90
2019-05-22T01:35:30.239Z,99.90
2019-05-22T01:40:42.085Z,99.90
2019-05-22T01:45:56.042Z,99.90
2019-05-22T01:51:02.257Z,99.90
2019-05-22T01:56:10.657Z,99.90
2019-05-22T02:01:19.337Z,99.90
2019-05-22T02:06:24.699Z,99.90
2019-05-22T02:11:29.918Z,99.90
2019-05-22T02:16:36.383Z,99.90
2019-05-22T02:21:42.378Z,99.90
2019-05-22T02:26:48.863Z,99.90
2019-05-22T02:31:57.520Z,99.90
2019-05-22T02:37:02.502Z,99.90
2019-05-22T02:42:18.847Z,99.90
2019-05-22T02:47:24.742Z,99.90
2019-05-22T02:52:30.299Z,99.90
2019-05-22T02:57:35.481Z,99.90
2019-05-22T03:02:51.971Z,99.90
2019-05-22T03:07:58.434Z,99.90
2019-05-22T03:13:03.767Z,99.90
2019-05-22T03:18:10.086Z,99.90
2019-05-22T03:23:41.880Z,99.90
2019-05-22T03:28:49.201Z,99.90
2019-05-22T03:33:55.217Z,99.90
2019-05-22T03:39:01.008Z,99.90
2019-05-22T03:44:06.729Z,99.90
2019-05-22T03:49:28.966Z,99.90
2019-05-22T03:54:22.546Z,99.90
2019-05-22T03:59:27.419Z,99.90
2019-05-22T04:04:40.079Z,99.90
2019-05-22T04:09:46.307Z,99.90
2019-05-22T04:14:52.604Z,99.90
2019-05-22T04:19:58.849Z,99.90
2019-05-22T04:25:05.632Z,99.90
2019-05-22T04:30:12.705Z,99.90
2019-05-22T04:35:19.054Z,99.90
2019-05-22T04:40:53.995Z,99.90
2019-05-22T04:45:59.164Z,99.90
2019-05-22T04:51:24.949Z,99.90
2019-05-22T04:56:31.471Z,99.90
2019-05-22T05:01:35.910Z,99.90
2019-05-22T05:06:41.720Z,99.90
2019-05-22T05:11:45.980Z,99.90
2019-05-22T05:16:50.682Z,99.90
2019-05-22T05:21:56.527Z,99.90
2019-05-22T05:27:02.951Z,99.90
2019-05-22T05:32:08.084Z,99.90
2019-05-22T05:37:13.068Z,99.90
2019-05-22T05:42:19.373Z,99.90
2019-05-22T05:47:24.786Z,99.90
2019-05-22T05:52:30.336Z,99.90
2019-05-22T05:58:30.560Z,99.90
2019-05-22T06:03:40.123Z,99.90
2019-05-22T06:08:46.006Z,99.90
2019-05-22T06:13:52.043Z,99.90
2019-05-22T06:18:57.685Z,99.90
2019-05-22T06:24:33.232Z,99.90
2019-05-22T06:30:13.833Z,99.90
2019-05-22T06:35:20.607Z,99.90
2019-05-22T06:40:28.678Z,99.90
2019-05-22T06:45:35.656Z,99.90
2019-05-22T06:50:39.916Z,99.90
2019-05-22T06:55:45.390Z,99.90
2019-05-22T07:00:51.113Z,99.90
2019-05-22T07:05:56.974Z,99.90
2019-05-22T07:11:02.868Z,99.90
2019-05-22T07:16:08.067Z,99.90
2019-05-22T07:21:13.872Z,99.90
2019-05-22T07:26:18.234Z,99.90
2019-05-22T07:31:22.979Z,99.90
2019-05-22T07:36:32.036Z,99.90
2019-05-22T07:41:36.419Z,99.90
2019-05-22T07:46:40.557Z,99.90
2019-05-22T07:51:56.210Z,97.40
2019-05-22T07:56:53.829Z,98.10
2019-05-22T08:01:59.643Z,99.90
2019-05-22T08:07:06.964Z,99.80
2019-05-22T08:12:14.055Z,98.20
2019-05-22T08:17:20.803Z,94.60
2019-05-22T08:22:27.783Z,97.40
2019-05-22T08:27:34.324Z,97.10
2019-05-22T08:32:40.709Z,92.10
2019-05-22T08:37:47.897Z,90.00
2019-05-22T08:42:52.995Z,87.70
2019-05-22T08:47:58.349Z,90.10
2019-05-22T08:53:03.479Z,90.30
2019-05-22T08:58:09.759Z,84.20
2019-05-22T09:03:16.085Z,83.20
2019-05-22T09:08:22.130Z,80.80
2019-05-22T09:13:27.928Z,79.30
2019-05-22T09:18:33.665Z,81.70
2019-05-22T09:23:40.443Z,81.00
2019-05-22T09:28:45.752Z,80.20
2019-05-22T09:33:51.284Z,79.50
2019-05-22T09:38:57.124Z,81.50
2019-05-22T09:44:02.718Z,79.40
2019-05-22T09:49:10.315Z,76.10
2019-05-22T09:54:15.893Z,75.40
2019-05-22T09:59:21.873Z,78.00
2019-05-22T10:04:26.925Z,78.40
2019-05-22T10:09:33.340Z,82.00
2019-05-22T10:14:39.595Z,78.90
2019-05-22T10:19:45.888Z,78.20
2019-05-22T10:24:52.175Z,78.50
2019-05-22T10:29:59.071Z,79.20
2019-05-22T10:35:08.481Z,78.40
2019-05-22T10:40:15.441Z,79.50
2019-05-22T10:45:21.287Z,76.20
2019-05-22T10:50:27.335Z,77.10
2019-05-22T10:55:33.495Z,76.60
2019-05-22T11:00:39.418Z,70.80
2019-05-22T11:05:45.177Z,71.10
2019-05-22T11:10:50.407Z,69.60
2019-05-22T11:15:56.539Z,69.60
2019-05-22T11:21:02.694Z,69.60
2019-05-22T11:26:09.394Z,68.00
2019-05-22T11:31:13.907Z,67.30
2019-05-22T11:36:18.764Z,65.80
2019-05-22T11:41:23.606Z,66.60
2019-05-22T11:46:27.784Z,66.50
2019-05-22T11:51:32.222Z,67.40
2019-05-22T11:56:36.029Z,68.00
2019-05-22T12:01:41.055Z,64.30
2019-05-22T12:06:45.654Z,62.90
2019-05-22T12:11:51.028Z,59.80
2019-05-22T12:16:55.696Z,55.90
2019-05-22T12:22:00.625Z,56.60
2019-05-22T12:27:07.364Z,57.20
2019-05-22T12:32:13.489Z,57.20
2019-05-22T12:37:18.004Z,54.30
2019-05-22T12:42:25.052Z,54.70
2019-05-22T12:47:31.467Z,52.80
2019-05-22T12:52:39.282Z,51.50
2019-05-22T12:57:45.265Z,46.20
2019-05-22T13:02:53.659Z,49.40
2019-05-22T13:07:59.864Z,49.60
2019-05-22T13:13:05.185Z,49.60
2019-05-22T13:18:14.430Z,48.10
2019-05-22T13:23:22.241Z,46.60
2019-05-22T13:28:29.125Z,46.80
2019-05-22T13:33:35.240Z,46.70
2019-05-22T13:38:41.248Z,43.30
2019-05-22T13:43:47.733Z,44.70
2019-05-22T13:48:52.976Z,43.00
2019-05-22T13:53:59.314Z,40.00
2019-05-22T13:59:04.633Z,42.90
2019-05-22T14:04:10.424Z,41.70
2019-05-22T14:09:21.182Z,44.60
2019-05-22T14:14:26.046Z,44.10
2019-05-22T14:19:31.701Z,41.50
2019-05-22T14:24:36.859Z,38.50
2019-05-22T14:29:42.187Z,39.20
2019-05-22T14:34:47.795Z,37.20
2019-05-22T14:39:54.450Z,39.50
2019-05-22T14:45:00.067Z,38.30
2019-05-22T14:50:09.390Z,38.10
2019-05-22T14:55:15.042Z,36.50
2019-05-22T15:00:22.765Z,38.30
2019-05-22T15:05:28.759Z,39.90
2019-05-22T15:10:36.261Z,38.00
2019-05-22T15:15:43.293Z,39.60
2019-05-22T15:20:56.654Z,37.70
2019-05-22T15:26:02.060Z,37.00
2019-05-22T15:31:06.964Z,35.90
2019-05-22T15:36:13.276Z,38.40
2019-05-22T15:41:18.242Z,36.80
2019-05-22T15:46:24.060Z,37.80
2019-05-22T15:51:32.710Z,37.20
2019-05-22T15:56:38.989Z,36.90
2019-05-22T16:01:45.262Z,36.50
2019-05-22T16:06:51.303Z,36.30
2019-05-22T16:11:56.108Z,36.40
2019-05-22T16:17:02.142Z,35.70
2019-05-22T16:22:07.631Z,37.80
2019-05-22T16:27:13.815Z,37.90
2019-05-22T16:32:21.334Z,37.70
2019-05-22T16:37:28.618Z,35.70
2019-05-22T16:42:37.970Z,39.10
2019-05-22T16:47:46.634Z,37.60
2019-05-22T16:52:53.649Z,37.80
2019-05-22T16:57:59.563Z,38.00
2019-05-22T17:03:07.220Z,37.00
2019-05-22T17:08:13.418Z,37.00
2019-05-22T17:13:19.520Z,37.70
2019-05-22T17:18:27.128Z,38.10
2019-05-22T17:23:32.757Z,36.70
2019-05-22T17:28:38.240Z,38.50
2019-05-22T17:33:44.396Z,39.50
2019-05-22T17:38:54.802Z,39.70
2019-05-22T17:44:01.867Z,39.50
2019-05-22T17:49:07.569Z,40.40
2019-05-22T17:54:12.993Z,43.20
2019-05-22T17:59:18.846Z,43.80
2019-05-22T18:04:24.621Z,43.40
2019-05-22T18:09:29.983Z,44.10
2019-05-22T18:14:36.268Z,46.30
2019-05-22T18:19:42.141Z,49.10
2019-05-22T18:24:47.535Z,50.00
2019-05-22T18:29:53.794Z,50.90
2019-05-22T18:35:00.123Z,53.20
2019-05-22T18:40:05.665Z,51.50
2019-05-22T18:45:12.481Z,54.50
2019-05-22T18:50:17.848Z,56.90
2019-05-22T18:55:23.131Z,57.40
2019-05-22T19:00:28.728Z,58.10
2019-05-22T19:05:34.478Z,58.60
2019-05-22T19:10:40.219Z,60.20
2019-05-22T19:15:43.952Z,62.10
2019-05-22T19:20:47.486Z,63.20
2019-05-22T19:25:51.201Z,63.60
2019-05-22T19:30:55.043Z,63.80
2019-05-22T19:35:58.755Z,63.80
2019-05-22T19:41:03.983Z,64.50
2019-05-22T19:46:09.721Z,64.40
2019-05-22T19:51:17.801Z,64.50
2019-05-22T19:56:24.148Z,64.20
2019-05-22T20:01:28.802Z,64.30
2019-05-22T20:06:33.401Z,64.50
2019-05-22T20:11:38.459Z,65.20
2019-05-22T20:16:42.940Z,66.70
2019-05-22T20:21:49.291Z,65.70
2019-05-22T20:26:53.743Z,66.90
2019-05-22T20:31:58.424Z,66.40
2019-05-22T20:37:06.799Z,67.70
2019-05-22T20:42:13.060Z,67.60
2019-05-22T20:47:23.938Z,67.50
2019-05-22T20:52:30.441Z,67.80
2019-05-22T20:57:35.862Z,68.30
2019-05-22T21:02:44.399Z,69.00
2019-05-22T21:07:53.878Z,68.70
2019-05-22T21:13:00.412Z,67.80
2019-05-22T21:18:07.016Z,68.00
2019-05-22T21:23:12.881Z,67.90
2019-05-22T21:28:18.489Z,68.90
2019-05-22T21:33:25.049Z,68.60
2019-05-22T21:38:30.827Z,68.70
2019-05-22T21:43:36.232Z,68.90
2019-05-22T21:48:42.083Z,68.40
2019-05-22T21:53:47.745Z,69.30
2019-05-22T21:58:53.714Z,70.10
2019-05-22T22:04:13.543Z,70.00
2019-05-22T22:09:20.517Z,70.10
2019-05-22T22:14:26.302Z,71.30
2019-05-22T22:19:33.650Z,72.10
2019-05-22T22:24:39.214Z,71.50
2019-05-22T22:29:44.511Z,70.60
2019-05-22T22:34:51.896Z,71.10
2019-05-22T22:39:57.066Z,71.60
2019-05-22T22:45:04.588Z,71.30
2019-05-22T22:50:13.080Z,70.70
2019-05-22T22:55:21.611Z,71.80
2019-05-22T23:00:38.594Z,71.90
2019-05-22T23:05:44.832Z,72.30
2019-05-22T23:10:50.543Z,71.80
2019-05-22T23:15:56.322Z,71.80
2019-05-22T23:20:59.575Z,72.60
2019-05-22T23:26:06.525Z,72.00
2019-05-22T23:31:12.436Z,72.10
2019-05-22T23:36:16.610Z,71.80
2019-05-22T23:41:23.178Z,71.00
2019-05-22T23:46:28.835Z,71.70
2019-05-22T23:51:32.738Z,72.10
2019-05-22T23:56:39.521Z,72.20
